Time;durP1;ratioP1;P1;durP2;ratioP2;P2;SDS_P1;SDS_P2;PMS_P1;PMS_P2;Temp;Humidity;BMP_temperature;BMP_pressure;BME280_temperature;BME280_humidity;BME280_pressure;Samples;Min_cycle;Max_cycle;Signal;HPM_P1;HPM_P2
2022/04/15 00:00:07;;;;;;;8.63;5.60;;;11.80;66.00;;;;;;5013876;28;20297;-82
2022/04/15 00:02:40;;;;;;;16.13;5.23;;;11.80;65.80;;;;;;5020239;28;20554;-82
2022/04/15 00:05:54;;;;;;;7.60;4.93;;;11.80;65.60;;;;;;5035600;28;20220;-82
2022/04/15 00:07:59;;;;;;;10.13;6.70;;;11.80;65.50;;;;;;5006217;28;20241;-82
2022/04/15 00:10:28;;;;;;;11.83;7.30;;;11.80;65.70;;;;;;5019279;28;20220;-82
2022/04/15 00:12:56;;;;;;;8.37;5.20;;;11.80;65.90;;;;;;5016909;28;21092;-82
2022/04/15 00:15:24;;;;;;;7.43;5.03;;;11.70;65.50;;;;;;5020600;28;20196;-82
2022/04/15 00:17:52;;;;;;;7.60;4.87;;;11.70;65.60;;;;;;5035584;28;20721;-82
2022/04/15 00:20:19;;;;;;;7.07;5.07;;;11.60;65.60;;;;;;5037456;28;20210;-82
2022/04/15 00:22:47;;;;;;;8.20;5.40;;;11.60;65.90;;;;;;5038226;28;20213;-82
2022/04/15 00:25:14;;;;;;;5.37;4.87;;;11.60;66.30;;;;;;5000724;28;20282;-82
2022/04/15 00:27:41;;;;;;;7.37;5.33;;;11.50;66.60;;;;;;5021551;28;20212;-82
2022/04/15 00:30:10;;;;;;;8.33;4.93;;;11.50;66.80;;;;;;5016405;28;20328;-82
2022/04/15 00:32:38;;;;;;;5.90;5.00;;;11.50;67.00;;;;;;5038278;28;20199;-82
2022/04/15 00:35:06;;;;;;;5.80;5.20;;;11.60;67.20;;;;;;5015320;28;20288;-82
2022/04/15 00:37:33;;;;;;;6.87;5.83;;;11.60;67.40;;;;;;5019899;28;20211;-82
2022/04/15 00:40:04;;;;;;;6.40;5.73;;;11.60;67.50;;;;;;5020929;28;20230;-82
2022/04/15 00:42:31;;;;;;;5.43;4.60;;;11.60;67.60;;;;;;5035395;28;20300;-81
2022/04/15 00:45:00;;;;;;;6.50;4.93;;;11.50;67.90;;;;;;5005686;28;20205;-82
2022/04/15 00:47:46;;;;;;;7.43;5.60;;;11.50;67.70;;;;;;5038747;28;20209;-82
2022/04/15 00:50:15;;;;;;;5.97;5.00;;;11.40;67.30;;;;;;5015623;28;20221;-81
2022/04/15 00:52:44;;;;;;;8.77;5.30;;;11.30;67.40;;;;;;5018549;28;20195;-82
2022/04/15 00:55:12;;;;;;;5.43;4.90;;;11.30;67.90;;;;;;5014463;28;20217;-82
2022/04/15 00:57:44;;;;;;;5.83;5.30;;;11.20;68.60;;;;;;5035557;28;20198;-82
2022/04/15 01:00:13;;;;;;;7.57;5.47;;;11.10;69.10;;;;;;5032457;28;20689;-81
2022/04/15 01:02:42;;;;;;;6.43;5.20;;;11.00;69.50;;;;;;5018554;28;20225;-82
2022/04/15 01:05:11;;;;;;;7.10;5.53;;;11.00;69.60;;;;;;5012506;28;20230;-82
2022/04/15 01:07:47;;;;;;;7.20;5.20;;;11.00;69.70;;;;;;5018981;28;20243;-81
2022/04/15 01:10:16;;;;;;;6.63;5.70;;;10.90;69.70;;;;;;5017517;28;20702;-81
2022/04/15 01:12:54;;;;;;;7.43;5.60;;;10.80;69.90;;;;;;5030885;28;20197;-81
2022/04/15 01:15:42;;;;;;;5.73;5.13;;;10.70;70.20;;;;;;5033731;28;20560;-82
2022/04/15 01:18:09;;;;;;;6.87;5.80;;;10.60;70.50;;;;;;5040213;28;20209;-81
2022/04/15 01:20:37;;;;;;;6.13;5.03;;;10.60;70.80;;;;;;5023317;28;20219;-82
2022/04/15 01:23:08;;;;;;;6.73;5.10;;;10.50;70.50;;;;;;5035106;28;20288;-81
2022/04/15 01:25:36;;;;;;;11.20;6.20;;;10.40;70.60;;;;;;5037891;28;20221;-81
2022/04/15 01:28:04;;;;;;;8.07;6.43;;;10.40;71.50;;;;;;5019263;28;20710;-81
2022/04/15 01:30:31;;;;;;;7.73;5.67;;;10.30;72.20;;;;;;5016294;28;20205;-80
2022/04/15 01:32:59;;;;;;;7.47;5.87;;;10.30;72.70;;;;;;5034445;28;20292;-80
2022/04/15 01:35:31;;;;;;;7.80;6.30;;;10.20;73.10;;;;;;5018674;28;20597;-80
2022/04/15 01:37:59;;;;;;;9.07;6.27;;;10.20;73.50;;;;;;5034211;28;20623;-80
2022/04/15 01:40:28;;;;;;;6.73;5.97;;;10.20;73.80;;;;;;5020039;28;20471;-80
2022/04/15 01:43:05;;;;;;;8.20;5.97;;;10.20;74.00;;;;;;5041874;28;20268;-80
2022/04/15 01:45:38;;;;;;;9.67;5.80;;;10.20;74.20;;;;;;5238608;22;20261;-80
2022/04/15 01:48:19;;;;;;;9.13;5.93;;;10.20;74.50;;;;;;5041166;28;20228;-81
2022/04/15 01:50:46;;;;;;;9.57;5.97;;;10.20;74.50;;;;;;5038870;28;20211;-80
2022/04/15 01:53:14;;;;;;;7.90;5.83;;;10.20;74.20;;;;;;5028310;28;20234;-80
2022/04/15 01:55:41;;;;;;;7.93;6.13;;;10.20;73.90;;;;;;5023096;28;20204;-81
2022/04/15 01:58:08;;;;;;;7.20;5.93;;;10.10;73.50;;;;;;5032893;28;20568;-81
2022/04/15 02:00:36;;;;;;;8.93;5.70;;;10.10;73.30;;;;;;5032331;28;20207;-81
2022/04/15 02:03:03;;;;;;;9.50;6.03;;;10.00;73.90;;;;;;5036127;28;20206;-81
2022/04/15 02:05:31;;;;;;;6.37;5.77;;;10.00;73.60;;;;;;5026191;28;20296;-81
2022/04/15 02:08:01;;;;;;;9.30;6.37;;;10.00;74.10;;;;;;5061430;28;20214;-80
2022/04/15 02:10:28;;;;;;;8.37;6.10;;;10.00;74.70;;;;;;5037727;28;20233;-81
2022/04/15 02:12:55;;;;;;;7.40;6.60;;;10.00;75.10;;;;;;5056466;28;20583;-81
2022/04/15 02:15:22;;;;;;;7.80;6.60;;;10.00;75.00;;;;;;5036225;28;20282;-81
2022/04/15 02:17:50;;;;;;;9.93;6.67;;;10.00;74.80;;;;;;5050599;28;20290;-81
2022/04/15 02:20:17;;;;;;;8.00;6.50;;;9.90;75.40;;;;;;5055670;28;20205;-81
2022/04/15 02:22:44;;;;;;;8.43;7.13;;;9.90;75.40;;;;;;5036439;28;20286;-80
2022/04/15 02:25:11;;;;;;;7.43;6.73;;;9.90;75.70;;;;;;5039510;28;20237;-81
2022/04/15 02:27:38;;;;;;;7.67;6.87;;;9.90;76.10;;;;;;5038217;28;20235;-81
2022/04/15 02:30:06;;;;;;;7.20;6.50;;;9.90;75.90;;;;;;5038097;28;20200;-81
2022/04/15 02:32:33;;;;;;;7.80;7.00;;;10.00;75.90;;;;;;5022042;28;20750;-81
2022/04/15 02:35:00;;;;;;;6.93;6.23;;;9.90;75.90;;;;;;5036576;28;20199;-81
2022/04/15 02:37:27;;;;;;;7.80;6.30;;;10.00;75.90;;;;;;5042863;28;20227;-81
2022/04/15 02:39:55;;;;;;;9.27;6.43;;;10.00;75.90;;;;;;5060783;28;20207;-81
2022/04/15 02:42:22;;;;;;;8.77;6.80;;;10.00;75.40;;;;;;5057440;28;20521;-81
2022/04/15 02:44:52;;;;;;;8.90;7.53;;;9.90;75.20;;;;;;5033339;28;20197;-81
2022/04/15 02:47:20;;;;;;;8.90;7.60;;;9.90;75.60;;;;;;5024107;28;20254;-81
2022/04/15 02:49:47;;;;;;;8.77;7.73;;;9.80;75.80;;;;;;5039048;28;20203;-81
2022/04/15 02:52:14;;;;;;;11.30;8.33;;;9.80;76.30;;;;;;5038867;28;20253;-81
2022/04/15 02:54:41;;;;;;;8.13;7.23;;;9.80;76.80;;;;;;5054677;28;20230;-81
2022/04/15 02:57:09;;;;;;;9.33;7.07;;;9.80;77.10;;;;;;5055134;28;20526;-81
2022/04/15 02:59:36;;;;;;;8.47;7.37;;;9.80;77.50;;;;;;5023430;28;20211;-81
2022/04/15 03:02:03;;;;;;;9.23;7.43;;;9.70;77.80;;;;;;5036038;28;20200;-81
2022/04/15 03:04:30;;;;;;;7.67;6.83;;;9.70;77.80;;;;;;5035989;28;20210;-81
2022/04/15 03:06:58;;;;;;;7.60;6.67;;;9.80;77.70;;;;;;5036220;28;20247;-81
2022/04/15 03:09:25;;;;;;;8.70;6.30;;;9.80;76.90;;;;;;5020451;28;20277;-81
2022/04/15 03:11:52;;;;;;;6.17;5.57;;;9.80;76.50;;;;;;5037757;28;20199;-81
2022/04/15 03:14:19;;;;;;;8.00;7.17;;;9.70;75.00;;;;;;5022047;28;20190;-81
2022/04/15 03:16:46;;;;;;;8.67;6.83;;;9.70;75.20;;;;;;5020997;28;20204;-81
2022/04/15 03:19:14;;;;;;;8.83;6.87;;;9.60;75.90;;;;;;5056387;28;20604;-81
2022/04/15 03:21:41;;;;;;;10.43;7.47;;;9.60;76.30;;;;;;5056597;28;20694;-81
2022/04/15 03:24:08;;;;;;;10.13;7.63;;;9.50;76.10;;;;;;5036504;28;20569;-81
2022/04/15 03:26:35;;;;;;;9.73;7.60;;;9.50;76.60;;;;;;5025178;28;20214;-81
2022/04/15 03:29:03;;;;;;;13.30;8.07;;;9.50;76.80;;;;;;5035193;28;20232;-81
2022/04/15 03:31:30;;;;;;;9.03;7.37;;;9.40;76.90;;;;;;5038482;28;20231;-81
2022/04/15 03:33:58;;;;;;;9.17;8.27;;;9.30;77.10;;;;;;5021831;28;20209;-81
2022/04/15 03:36:40;;;;;;;10.73;8.20;;;9.30;77.20;;;;;;5054923;28;20696;-81
2022/04/15 03:39:07;;;;;;;11.37;8.83;;;9.20;77.60;;;;;;5053230;28;20199;-81
2022/04/15 03:41:35;;;;;;;10.67;8.03;;;9.20;78.30;;;;;;5055736;28;20285;-81
2022/04/15 03:44:02;;;;;;;8.37;7.47;;;9.10;78.60;;;;;;5021781;28;20207;-81
2022/04/15 03:46:29;;;;;;;10.27;8.77;;;9.10;79.00;;;;;;5035497;28;20227;-81
2022/04/15 03:48:56;;;;;;;11.77;8.13;;;9.00;79.10;;;;;;5019478;28;20190;-81
2022/04/15 03:51:23;;;;;;;10.50;8.20;;;9.00;79.50;;;;;;5055041;28;20204;-81
2022/04/15 03:53:50;;;;;;;12.13;8.70;;;8.90;79.80;;;;;;5038823;28;20206;-81
2022/04/15 03:56:17;;;;;;;10.97;8.40;;;8.90;79.90;;;;;;5020879;28;20264;-81
2022/04/15 03:58:44;;;;;;;9.90;8.33;;;8.90;79.70;;;;;;5037816;28;20233;-82
2022/04/15 04:01:12;;;;;;;9.53;8.20;;;8.80;80.00;;;;;;5056087;28;20212;-81
2022/04/15 04:03:47;;;;;;;10.63;8.70;;;8.80;79.70;;;;;;5018511;28;20564;-83
2022/04/15 04:06:15;;;;;;;10.77;8.57;;;8.80;80.00;;;;;;5031181;28;20971;-82
2022/04/15 04:08:49;;;;;;;12.10;8.43;;;8.70;80.50;;;;;;5040608;28;20302;-82
2022/04/15 04:11:20;;;;;;;12.63;8.40;;;8.70;80.50;;;;;;5033395;28;20267;-82
2022/04/15 04:13:48;;;;;;;9.63;7.73;;;8.70;80.70;;;;;;5038529;28;20248;-82
2022/04/15 04:16:17;;;;;;;10.93;7.40;;;8.60;80.80;;;;;;5024733;28;20701;-82
2022/04/15 04:18:45;;;;;;;10.53;8.50;;;8.60;80.60;;;;;;5037481;28;20214;-82
2022/04/15 04:21:13;;;;;;;12.83;7.97;;;8.50;80.40;;;;;;5041150;28;20227;-82
2022/04/15 04:23:40;;;;;;;11.47;8.90;;;8.60;80.60;;;;;;5042802;28;20203;-82
2022/04/15 04:26:08;;;;;;;14.90;8.50;;;8.50;80.70;;;;;;5043613;28;20253;-82
2022/04/15 04:28:35;;;;;;;9.13;7.47;;;8.50;81.00;;;;;;5043080;28;20214;-82
2022/04/15 04:31:02;;;;;;;9.27;7.97;;;8.50;81.20;;;;;;5051953;28;20222;-82
2022/04/15 04:33:31;;;;;;;10.70;8.40;;;8.50;81.10;;;;;;5043051;28;20225;-82
2022/04/15 04:36:33;;;;;;;11.83;8.80;;;8.50;81.40;;;;;;5039097;28;20226;-82
2022/04/15 04:39:14;;;;;;;9.50;8.03;;;8.40;81.60;;;;;;5023622;28;20248;-83
2022/04/15 04:41:58;;;;;;;10.13;8.73;;;8.40;82.10;;;;;;5005914;28;20538;-82
2022/04/15 04:44:41;;;;;;;14.33;9.13;;;8.40;81.90;;;;;;5010573;28;20206;-82
2022/04/15 04:47:23;;;;;;;10.73;8.40;;;8.30;82.10;;;;;;5012540;28;20266;-82
2022/04/15 04:49:52;;;;;;;13.53;8.97;;;8.30;82.70;;;;;;5035756;28;20201;-82
2022/04/15 04:52:20;;;;;;;10.37;8.13;;;8.40;82.90;;;;;;5036747;28;20230;-82
2022/04/15 04:55:03;;;;;;;8.60;7.50;;;8.40;82.60;;;;;;5019431;28;20232;-82
2022/04/15 04:57:30;;;;;;;14.07;8.60;;;8.40;81.70;;;;;;5055988;28;20257;-82
2022/04/15 04:59:58;;;;;;;9.47;8.37;;;8.40;81.50;;;;;;5038484;28;20221;-82
2022/04/15 05:02:25;;;;;;;11.33;8.43;;;8.40;81.70;;;;;;5018087;28;20242;-82
2022/04/15 05:04:52;;;;;;;10.83;8.23;;;8.50;81.70;;;;;;5027040;28;20294;-83
2022/04/15 05:07:34;;;;;;;13.60;9.77;;;8.50;82.00;;;;;;5013224;28;20285;-82
2022/04/15 05:10:10;;;;;;;16.43;10.23;;;8.60;82.30;;;;;;5037882;28;20213;-82
2022/04/15 05:12:59;;;;;;;12.37;8.97;;;8.90;82.50;;;;;;5004271;28;20230;-82
2022/04/15 05:16:04;;;;;;;11.37;9.23;;;9.40;81.70;;;;;;5035037;28;20195;-82
2022/04/15 05:20:10;;;;;;;11.27;7.57;;;10.00;79.80;;;;;;5053400;28;20203;-82
2022/04/15 05:23:55;;;;;;;9.50;7.47;;;11.20;74.70;;;;;;5020275;28;20208;-83
2022/04/15 05:26:22;;;;;;;11.07;8.17;;;12.10;69.80;;;;;;4997143;28;20266;-82
2022/04/15 05:28:50;;;;;;;10.10;7.87;;;12.40;68.50;;;;;;4992130;28;20227;-82
2022/04/15 05:32:07;;;;;;;9.03;8.13;;;12.50;68.00;;;;;;4995099;28;20212;-82
2022/04/15 05:38:41;;;;;;;10.97;9.37;;;12.40;69.20;;;;;;5008943;28;20203;-82
2022/04/15 05:42:11;;;;;;;14.50;9.43;;;12.00;70.90;;;;;;5003315;28;20209;-82
2022/04/15 05:45:04;;;;;;;16.83;10.03;;;11.80;72.20;;;;;;5003608;28;20288;-82
2022/04/15 05:48:44;;;;;;;11.90;9.70;;;11.70;73.40;;;;;;5002688;28;20242;-82
2022/04/15 05:52:37;;;;;;;11.80;9.83;;;11.70;73.90;;;;;;4984176;28;20332;-82
2022/04/15 05:55:41;;;;;;;11.73;10.53;;;11.70;75.70;;;;;;5020938;28;20226;-82
2022/04/15 05:58:11;;;;;;;13.53;10.80;;;11.80;76.90;;;;;;5021045;28;20211;-81
2022/04/15 06:00:39;;;;;;;13.57;11.37;;;11.90;78.00;;;;;;5003812;28;20221;-81
2022/04/15 06:03:09;;;;;;;15.20;11.40;;;12.00;78.00;;;;;;5021999;28;20233;-81
2022/04/15 06:05:38;;;;;;;13.20;11.80;;;12.20;78.10;;;;;;5034822;28;20190;-80
2022/04/15 06:08:07;;;;;;;15.33;12.07;;;12.40;77.90;;;;;;5008999;28;20224;-81
2022/04/15 06:10:39;;;;;;;12.70;11.50;;;12.60;77.70;;;;;;5017107;28;20201;-82
2022/04/15 06:13:09;;;;;;;13.20;11.40;;;12.70;77.10;;;;;;5021110;28;20715;-81
2022/04/15 06:15:41;;;;;;;15.40;12.77;;;12.90;77.10;;;;;;5021604;28;20266;-81
2022/04/15 06:18:10;;;;;;;14.07;12.67;;;13.10;77.10;;;;;;5117773;23;20290;-81
2022/04/15 06:20:52;;;;;;;13.60;12.20;;;13.30;76.60;;;;;;5014994;28;20205;-81
2022/04/15 06:23:21;;;;;;;13.43;11.63;;;13.40;76.20;;;;;;5019596;28;20202;-81
2022/04/15 06:25:48;;;;;;;13.93;12.53;;;13.60;75.70;;;;;;5024575;28;20299;-81
2022/04/15 06:28:16;;;;;;;17.30;12.40;;;13.80;75.40;;;;;;5003454;28;20254;-82
2022/04/15 06:30:43;;;;;;;15.17;12.67;;;14.00;74.90;;;;;;4988855;28;20196;-81
2022/04/15 06:33:20;;;;;;;13.97;12.57;;;14.20;74.40;;;;;;5022026;28;20279;-80
2022/04/15 06:36:01;;;;;;;14.50;13.00;;;14.30;73.80;;;;;;5005363;28;20258;-80
2022/04/15 06:38:28;;;;;;;15.47;13.87;;;14.50;73.30;;;;;;5011536;28;20222;-81
2022/04/15 06:40:56;;;;;;;14.73;12.47;;;14.60;72.50;;;;;;5004772;28;20195;-80
2022/04/15 06:43:23;;;;;;;14.43;11.87;;;14.80;72.00;;;;;;5006886;28;20623;-80
2022/04/15 06:45:51;;;;;;;15.53;12.23;;;14.90;71.50;;;;;;5004250;28;20283;-81
2022/04/15 06:48:18;;;;;;;15.07;12.70;;;15.00;70.80;;;;;;4998712;28;20229;-81
2022/04/15 06:50:45;;;;;;;13.47;12.07;;;15.20;70.50;;;;;;5012814;28;20290;-81
2022/04/15 06:53:12;;;;;;;11.53;10.33;;;15.30;70.20;;;;;;5024294;28;20213;-81
2022/04/15 06:55:39;;;;;;;11.67;10.47;;;15.50;68.20;;;;;;5031473;28;20200;-80
2022/04/15 06:58:11;;;;;;;14.00;11.27;;;15.50;66.60;;;;;;5010228;28;20213;-80
2022/04/15 07:00:40;;;;;;;13.37;11.83;;;15.50;66.80;;;;;;5023224;28;20226;-81
2022/04/15 07:03:09;;;;;;;12.27;10.97;;;15.60;67.60;;;;;;4991287;28;20205;-79
2022/04/15 07:05:41;;;;;;;14.07;11.93;;;15.60;67.90;;;;;;4997595;28;20205;-81
2022/04/15 07:08:09;;;;;;;14.37;12.47;;;15.80;67.60;;;;;;5011614;28;20234;-79
2022/04/15 07:10:37;;;;;;;12.83;11.53;;;15.80;67.80;;;;;;5026160;28;20195;-80
2022/04/15 07:13:06;;;;;;;12.27;11.00;;;16.00;67.70;;;;;;5022925;28;20200;-81
2022/04/15 07:16:19;;;;;;;13.73;11.40;;;16.20;67.00;;;;;;4954390;28;20217;-80
2022/04/15 07:19:16;;;;;;;15.43;11.47;;;16.40;65.70;;;;;;4959922;28;20267;-79
2022/04/15 07:22:33;;;;;;;12.33;10.60;;;16.50;64.90;;;;;;4947526;28;20300;-78
2022/04/15 07:25:20;;;;;;;14.93;12.20;;;16.50;65.30;;;;;;4978356;28;20294;-79
2022/04/15 07:27:49;;;;;;;13.27;11.87;;;16.60;66.20;;;;;;4972150;28;20256;-79
2022/04/15 07:30:18;;;;;;;13.10;11.80;;;16.70;66.40;;;;;;4953718;28;20223;-78
2022/04/15 07:32:51;;;;;;;15.37;12.47;;;16.90;65.90;;;;;;4936665;28;20205;-79
2022/04/15 07:35:21;;;;;;;14.73;11.80;;;17.00;65.80;;;;;;4971206;28;20210;-80
2022/04/15 07:37:49;;;;;;;13.73;11.70;;;17.10;64.70;;;;;;4942001;29;20240;-80
2022/04/15 07:40:17;;;;;;;18.10;12.47;;;17.20;64.40;;;;;;4942195;29;20226;-78
2022/04/15 07:42:44;;;;;;;12.50;11.23;;;17.30;63.70;;;;;;4965493;28;20214;-79
2022/04/15 07:45:11;;;;;;;12.97;10.93;;;17.40;63.60;;;;;;4962364;28;20235;-79
2022/04/15 07:47:38;;;;;;;12.23;10.50;;;17.50;62.50;;;;;;5010332;28;20656;-78
2022/04/15 07:50:25;;;;;;;13.87;11.67;;;17.60;62.80;;;;;;5015645;28;20188;-77
2022/04/15 07:53:01;;;;;;;12.27;10.97;;;17.70;61.60;;;;;;5016236;28;20205;-78
2022/04/15 07:55:53;;;;;;;14.53;11.40;;;17.80;61.00;;;;;;5010123;28;20178;-81
2022/04/15 07:58:22;;;;;;;16.13;12.20;;;17.70;61.60;;;;;;4997302;28;20252;-80
2022/04/15 08:00:49;;;;;;;12.57;11.27;;;17.90;62.60;;;;;;4993129;28;20227;-80
2022/04/15 08:03:21;;;;;;;14.97;12.03;;;18.10;62.50;;;;;;5001959;28;20197;-78
2022/04/15 08:06:18;;;;;;;12.73;11.00;;;18.30;62.00;;;;;;5023532;28;20216;-80
2022/04/15 08:09:11;;;;;;;11.07;9.87;;;18.50;59.60;;;;;;5036710;28;20766;-80
2022/04/15 08:11:46;;;;;;;12.57;11.23;;;18.70;60.00;;;;;;4974361;28;20314;-80
2022/04/15 08:15:08;;;;;;;15.27;11.97;;;18.80;59.90;;;;;;5018496;28;20277;-80
2022/04/15 08:17:36;;;;;;;15.30;10.77;;;19.10;59.10;;;;;;5023121;28;20240;-80
2022/04/15 08:20:03;;;;;;;11.10;9.93;;;19.20;58.80;;;;;;4990975;28;20242;-80
2022/04/15 08:22:35;;;;;;;12.47;10.77;;;19.40;57.90;;;;;;5002788;28;20210;-81
2022/04/15 08:25:08;;;;;;;12.00;10.50;;;19.60;57.30;;;;;;5007950;28;20208;-79
2022/04/15 08:27:35;;;;;;;12.13;10.93;;;19.70;56.90;;;;;;5005643;28;20227;-80
2022/04/15 08:30:04;;;;;;;15.70;11.20;;;19.80;56.50;;;;;;5015163;28;20207;-79
2022/04/15 08:32:35;;;;;;;15.17;11.07;;;19.90;55.80;;;;;;5007609;28;20198;-79
2022/04/15 08:35:11;;;;;;;16.83;12.27;;;20.00;56.20;;;;;;5005096;28;20249;-80
2022/04/15 08:37:39;;;;;;;14.87;10.37;;;20.10;56.10;;;;;;4985114;28;20199;-81
2022/04/15 08:40:07;;;;;;;11.60;10.00;;;20.20;54.90;;;;;;4987770;28;20190;-80
2022/04/15 08:42:35;;;;;;;10.93;9.90;;;20.30;54.20;;;;;;5006391;28;20234;-80
2022/04/15 08:45:06;;;;;;;14.80;10.73;;;20.50;54.60;;;;;;4989613;28;20207;-82
2022/04/15 08:48:02;;;;;;;12.90;11.30;;;20.60;55.00;;;;;;4986384;28;20284;-81
2022/04/15 08:50:32;;;;;;;19.53;12.13;;;20.80;54.70;;;;;;5006139;28;20203;-79
2022/04/15 08:53:00;;;;;;;13.47;11.90;;;20.90;54.30;;;;;;5007400;28;20211;-81
2022/04/15 08:55:29;;;;;;;20.17;13.00;;;21.10;53.90;;;;;;5001610;28;20207;-82
2022/04/15 08:57:57;;;;;;;12.83;11.63;;;21.20;52.30;;;;;;4998845;28;20293;-82
2022/04/15 09:00:29;;;;;;;12.53;10.77;;;21.20;52.00;;;;;;5023638;23;20246;-91
2022/04/15 09:02:57;;;;;;;12.23;11.03;;;21.20;52.90;;;;;;5015572;28;20292;-91
2022/04/15 09:05:27;;;;;;;14.77;10.40;;;21.30;51.90;;;;;;5015232;28;20671;-91
2022/04/15 09:08:10;;;;;;;11.90;10.70;;;21.40;51.60;;;;;;5001934;28;20313;-91
2022/04/15 09:10:40;;;;;;;11.17;10.07;;;21.30;50.10;;;;;;5011152;28;20222;-91
2022/04/15 09:13:19;;;;;;;11.87;9.53;;;21.30;50.40;;;;;;5013854;28;20556;-91
2022/04/15 09:15:47;;;;;;;11.43;8.80;;;21.30;51.40;;;;;;5015678;28;20248;-91
2022/04/15 09:18:32;;;;;;;12.87;10.03;;;21.40;50.90;;;;;;4996877;28;20447;-91
2022/04/15 09:21:28;;;;;;;10.50;9.23;;;21.50;49.50;;;;;;5013898;28;20282;-91
2022/04/15 09:23:56;;;;;;;10.90;8.50;;;21.50;49.90;;;;;;5020968;28;20289;-90
2022/04/15 09:26:25;;;;;;;8.53;7.63;;;21.60;50.00;;;;;;5010060;28;20213;-90
2022/04/15 09:28:59;;;;;;;8.03;5.93;;;21.70;50.30;;;;;;5033795;28;20215;-91
2022/04/15 09:31:34;;;;;;;6.37;4.93;;;21.90;50.30;;;;;;4999944;28;20717;-90
2022/04/15 09:34:02;;;;;;;7.57;5.00;;;22.10;47.90;;;;;;5025741;28;20206;-90
2022/04/15 09:36:35;;;;;;;4.30;3.90;;;22.30;47.50;;;;;;4995631;28;20226;-91
2022/04/15 09:39:11;;;;;;;6.07;5.13;;;22.50;44.90;;;;;;5012018;28;20260;-91
2022/04/15 09:41:40;;;;;;;6.07;5.13;;;22.60;43.80;;;;;;5012054;28;20215;-91
2022/04/15 09:44:12;;;;;;;5.17;4.50;;;22.70;44.70;;;;;;5010674;28;20207;-91
2022/04/15 09:46:46;;;;;;;5.90;4.73;;;22.80;45.20;;;;;;5006773;28;20222;-90
2022/04/15 09:49:14;;;;;;;8.27;5.10;;;22.90;45.10;;;;;;5014209;28;20337;-90
2022/04/15 09:51:45;;;;;;;8.40;6.27;;;22.90;44.50;;;;;;4987176;28;20290;-90
2022/04/15 09:54:27;;;;;;;8.10;5.73;;;23.00;44.50;;;;;;4997616;28;20205;-91
2022/04/15 09:56:57;;;;;;;6.23;5.23;;;23.10;44.50;;;;;;4992125;28;21436;-90
2022/04/15 09:59:29;;;;;;;7.77;5.43;;;23.20;44.40;;;;;;5016909;28;20216;-90
2022/04/15 10:01:58;;;;;;;8.97;5.83;;;23.20;45.50;;;;;;4992115;28;20705;-91
2022/04/15 10:04:27;;;;;;;5.67;5.07;;;23.40;44.40;;;;;;5029553;28;20195;-90
2022/04/15 10:06:55;;;;;;;5.23;4.53;;;23.30;44.80;;;;;;5013221;28;20242;-90
2022/04/15 10:09:28;;;;;;;6.97;4.83;;;23.30;45.50;;;;;;5008560;28;20591;-90
2022/04/15 10:12:08;;;;;;;5.90;4.90;;;23.30;44.90;;;;;;5015863;28;20627;-90
2022/04/15 10:14:38;;;;;;;5.93;3.70;;;23.40;45.00;;;;;;5025384;28;20320;-90
2022/04/15 10:17:06;;;;;;;4.53;2.43;;;23.60;44.10;;;;;;5012505;28;20223;-90
2022/04/15 10:19:36;;;;;;;4.00;2.70;;;23.60;40.70;;;;;;5009784;28;20634;-91
2022/04/15 10:22:05;;;;;;;2.77;2.23;;;23.70;41.50;;;;;;5002443;28;20698;-91
2022/04/15 10:24:33;;;;;;;3.97;2.90;;;23.70;41.20;;;;;;5016404;28;20257;-91
2022/04/15 10:27:01;;;;;;;6.63;3.90;;;23.70;40.80;;;;;;5022379;28;20222;-90
2022/04/15 10:29:29;;;;;;;7.07;4.33;;;23.80;42.10;;;;;;5000705;28;20250;-91
2022/04/15 10:31:56;;;;;;;4.73;3.97;;;23.90;43.50;;;;;;5027855;28;20301;-90
2022/04/15 10:34:23;;;;;;;6.03;3.83;;;24.10;43.20;;;;;;5010581;28;20226;-91
2022/04/15 10:36:54;;;;;;;3.27;2.83;;;24.20;42.60;;;;;;5031940;28;20689;-91
2022/04/15 10:39:26;;;;;;;7.50;2.87;;;24.30;41.90;;;;;;5013284;28;20234;-90
2022/04/15 10:42:02;;;;;;;3.60;2.27;;;24.40;42.20;;;;;;5015357;28;20247;-90
2022/04/15 10:44:31;;;;;;;3.00;1.97;;;24.40;37.50;;;;;;5016419;28;20249;-91
2022/04/15 10:47:19;;;;;;;5.30;2.53;;;24.30;36.90;;;;;;5021184;28;20223;-92
2022/04/15 10:50:06;;;;;;;2.87;2.27;;;24.10;37.70;;;;;;4995428;28;20214;-91
2022/04/15 10:52:36;;;;;;;5.43;3.40;;;24.00;37.40;;;;;;4996471;28;20214;-90
2022/04/15 10:55:05;;;;;;;5.53;3.17;;;23.90;38.90;;;;;;5032128;28;20699;-92
2022/04/15 10:57:36;;;;;;;8.03;2.97;;;23.80;40.60;;;;;;5011098;28;20288;-91
2022/04/15 11:03:25;;;;;;;3.47;2.47;;;23.80;40.90;;;;;;5000122;28;20231;-90
2022/04/15 11:06:02;;;;;;;5.10;2.83;;;23.90;40.90;;;;;;5017512;28;20242;-91
2022/04/15 11:08:50;;;;;;;5.10;3.10;;;24.00;38.70;;;;;;5017916;28;20212;-91
2022/04/15 11:11:32;;;;;;;5.80;3.20;;;24.00;39.50;;;;;;4977399;28;20208;-92
2022/04/15 11:14:03;;;;;;;4.47;3.07;;;24.00;40.80;;;;;;5003188;28;20283;-91
2022/04/15 11:16:41;;;;;;;4.00;2.70;;;24.00;40.70;;;;;;4998301;28;20219;-90
2022/04/15 11:19:13;;;;;;;3.67;2.50;;;24.10;41.80;;;;;;5021290;28;20299;-90
2022/04/15 11:21:40;;;;;;;7.67;4.60;;;24.20;38.50;;;;;;5008940;28;21084;-91
2022/04/15 11:24:12;;;;;;;8.33;4.47;;;24.20;38.30;;;;;;5024131;28;20663;-90
2022/04/15 11:26:42;;;;;;;5.83;3.23;;;24.20;39.20;;;;;;5026071;28;20304;-90
2022/04/15 11:29:12;;;;;;;8.60;4.17;;;24.30;38.50;;;;;;5023088;28;20224;-91
2022/04/15 11:31:49;;;;;;;6.73;4.20;;;24.30;36.80;;;;;;5037300;28;20204;-91
2022/04/15 11:34:18;;;;;;;5.83;3.40;;;24.40;38.10;;;;;;5006212;28;20303;-90
2022/04/15 11:36:50;;;;;;;6.77;3.40;;;24.40;39.90;;;;;;5021897;28;20227;-90
2022/04/15 11:39:20;;;;;;;6.30;3.73;;;24.40;40.00;;;;;;5020974;28;20204;-90
2022/04/15 11:41:53;;;;;;;5.00;3.27;;;24.60;39.30;;;;;;5006749;28;20188;-91
2022/04/15 11:44:22;;;;;;;4.50;3.03;;;24.70;36.40;;;;;;4996195;28;20208;-89
2022/04/15 11:47:23;;;;;;;5.00;3.20;;;24.60;34.30;;;;;;4985560;28;20215;-95
2022/04/15 11:49:52;;;;;;;4.90;2.77;;;24.60;36.20;;;;;;4994517;28;20660;-79
2022/04/15 11:52:46;;;;;;;2.83;2.30;;;24.60;34.70;;;;;;4984928;28;20208;-80
2022/04/15 11:55:16;;;;;;;5.43;3.00;;;24.50;38.30;;;;;;5009899;28;20213;-80
2022/04/15 11:57:50;;;;;;;7.17;3.03;;;24.60;39.10;;;;;;4997373;28;20209;-80
2022/04/15 12:00:19;;;;;;;3.80;3.03;;;24.60;38.50;;;;;;4992381;28;20209;-79
2022/04/15 12:02:46;;;;;;;5.27;2.20;;;24.70;38.70;;;;;;5009205;28;20262;-78
2022/04/15 12:05:21;;;;;;;3.90;2.20;;;24.90;39.50;;;;;;4985969;28;20205;-79
2022/04/15 12:07:54;;;;;;;3.50;2.23;;;25.10;38.40;;;;;;5005630;28;20752;-79
2022/04/15 12:10:21;;;;;;;5.07;2.70;;;25.20;38.40;;;;;;4984095;28;20205;-79
2022/04/15 12:12:52;;;;;;;4.67;2.37;;;25.40;37.30;;;;;;4982226;28;20625;-80
2022/04/15 12:15:25;;;;;;;3.00;2.37;;;25.40;36.50;;;;;;4997237;28;20204;-79
2022/04/15 12:17:53;;;;;;;3.97;2.53;;;25.50;37.10;;;;;;5008543;28;20236;-80
2022/04/15 12:20:24;;;;;;;7.07;2.63;;;25.50;36.20;;;;;;5060669;22;20273;-79
2022/04/15 12:22:52;;;;;;;4.00;2.20;;;25.50;36.30;;;;;;4978096;28;20237;-80
2022/04/15 12:26:05;;;;;;;2.67;1.87;;;25.40;37.30;;;;;;5007875;28;20226;-79
2022/04/15 12:31:26;;;;;;;4.77;2.20;;;25.40;35.70;;;;;;5014823;28;20223;-79
2022/04/15 12:33:56;;;;;;;3.47;2.00;;;25.50;36.40;;;;;;5003618;28;20230;-79
2022/04/15 12:36:25;;;;;;;2.57;2.10;;;25.50;35.90;;;;;;5017863;28;20212;-79
2022/04/15 12:39:04;;;;;;;2.13;1.67;;;25.50;34.50;;;;;;5018092;28;20539;-80
2022/04/15 12:41:38;;;;;;;5.17;1.60;;;25.60;33.80;;;;;;5007874;28;20214;-80
2022/04/15 12:44:23;;;;;;;5.50;2.50;;;25.60;35.80;;;;;;5027039;28;20215;-80
2022/04/15 12:47:02;;;;;;;2.60;1.90;;;25.60;34.70;;;;;;5114193;23;20258;-78
2022/04/15 12:49:34;;;;;;;6.47;2.20;;;25.60;36.80;;;;;;5000700;28;20229;-78
2022/04/15 12:52:17;;;;;;;2.87;2.20;;;25.60;37.20;;;;;;5010127;28;20203;-78
2022/04/15 12:55:05;;;;;;;4.77;2.10;;;25.70;35.80;;;;;;5034673;28;20204;-79
2022/04/15 12:57:41;;;;;;;3.57;1.77;;;25.60;37.40;;;;;;5021973;28;20330;-80
2022/04/15 13:00:11;;;;;;;2.70;1.87;;;25.50;39.00;;;;;;5005886;28;20207;-80
2022/04/15 13:02:39;;;;;;;3.07;2.10;;;25.50;38.00;;;;;;4990126;28;20211;-81
2022/04/15 13:05:12;;;;;;;2.37;1.70;;;25.60;38.20;;;;;;5022469;28;20223;-79
2022/04/15 13:07:44;;;;;;;2.50;2.27;;;25.60;36.70;;;;;;5032770;28;20208;-80
2022/04/15 13:10:12;;;;;;;3.10;1.90;;;25.60;36.40;;;;;;5030417;28;20209;-80
2022/04/15 13:13:06;;;;;;;2.47;2.10;;;25.60;35.50;;;;;;5001716;28;20198;-80
2022/04/15 13:15:35;;;;;;;4.57;2.40;;;25.50;34.90;;;;;;5056763;23;20286;-80
2022/04/15 13:18:06;;;;;;;4.00;2.93;;;25.50;35.20;;;;;;4996099;28;20218;-79
2022/04/15 13:20:37;;;;;;;2.63;2.10;;;25.40;34.60;;;;;;5014314;28;20208;-80
2022/04/15 13:23:04;;;;;;;3.30;2.67;;;25.40;34.80;;;;;;4982518;28;20275;-79
2022/04/15 13:25:36;;;;;;;3.23;2.20;;;25.30;35.20;;;;;;4993870;28;20196;-80